.
WxDataArchive / Data Records for 2006-06-21
2006-06-20 June 2006 2006-06-22

Data Records for Wednesday, 21 June 2006

Time	Temp	Chill	HIndex	Humid	Dewpt	 Wind 	HiWind	WindDir	Rain 	Barom 
-----	----	-----	------	-----	-----	------	------	-------	-----	----- 
00:00	67.3	67.3	67.3	76	59.5	0	0	---	0.00	29.977 
00:05	67.3	67.3	67.3	77	59.8	0	0	---	0.00	29.977 
00:10	67.6	67.6	67.6	74	59.0	0	1	90	0.00	29.977 
00:15	68.3	68.3	68.3	72	58.9	0	1	90	0.00	29.967 
00:20	68.8	68.8	68.8	72	59.4	0	1	90	0.00	29.967 
00:25	68.9	68.9	68.9	73	59.9	0	1	90	0.00	29.967 
00:30	68.9	68.9	68.9	73	59.9	0	2	90	0.00	29.960 
00:35	68.8	68.8	68.8	73	59.8	0	1	90	0.00	29.960 
00:40	68.8	68.8	68.8	73	59.8	0	1	90	0.00	29.960 
00:45	68.6	68.6	68.6	73	59.6	0	1	90	0.00	29.958 
00:50	68.6	68.6	68.6	73	59.6	0	1	90	0.00	29.958 
00:55	68.6	68.6	68.6	73	59.6	0	2	90	0.00	29.958 
01:00	68.6	68.6	68.6	73	59.6	0	0	---	0.00	29.956 
01:05	68.4	68.4	68.4	74	59.8	0	1	90	0.00	29.956 
01:10	68.1	68.1	68.1	75	59.9	0	0	---	0.00	29.956 
01:15	67.9	67.9	67.9	75	59.7	0	0	---	0.00	29.952 
01:20	67.6	67.6	67.6	76	59.8	0	0	---	0.00	29.952 
01:25	67.4	67.4	67.4	76	59.6	0	0	---	0.00	29.952 
01:30	67.3	67.3	67.3	77	59.8	0	0	---	0.00	29.958 
01:35	66.9	66.9	66.9	78	59.8	0	0	---	0.00	29.958 
01:40	66.6	66.6	66.6	78	59.5	0	0	---	0.00	29.958 
01:45	66.4	66.4	66.4	79	59.7	0	0	---	0.00	29.959 
01:50	66.1	66.1	66.1	80	59.7	0	0	---	0.00	29.959 
01:55	66.0	66.0	66.0	80	59.6	0	0	---	0.00	29.959 
02:00	65.8	65.8	65.8	81	59.8	0	0	---	0.00	29.956 
02:05	65.6	65.6	65.6	81	59.6	0	0	---	0.00	29.956 
02:10	65.5	65.5	65.5	82	59.9	0	0	---	0.00	29.956 
02:15	65.3	65.3	65.3	82	59.7	0	0	---	0.00	29.956 
02:20	65.2	65.2	65.2	82	59.6	0	0	---	0.00	29.956 
02:25	65.2	65.2	65.2	83	59.9	0	0	---	0.00	29.956 
02:30	65.0	65.0	65.0	83	59.7	0	0	---	0.00	29.956 
02:35	64.8	64.8	64.8	84	59.8	0	0	---	0.00	29.956 
02:40	64.7	64.7	64.7	84	59.7	0	0	---	0.00	29.956 
02:45	64.7	64.7	64.7	85	60.1	0	0	---	0.00	29.956 
02:50	64.8	64.8	64.8	85	60.2	0	0	---	0.00	29.956 
02:55	65.0	65.0	65.0	85	60.4	0	0	---	0.00	29.956 
03:00	65.2	65.2	65.2	85	60.6	0	0	---	0.00	29.957 
03:05	65.5	65.5	65.5	85	60.9	0	1	90	0.00	29.957 
03:10	65.8	65.8	65.8	85	61.2	0	1	90	0.00	29.957 
03:15	66.1	66.1	66.1	84	61.1	0	1	90	0.00	29.947 
03:20	66.1	66.1	66.1	84	61.1	0	1	90	0.00	29.947 
03:25	66.1	66.1	66.1	84	61.1	0	1	90	0.00	29.947 
03:30	66.1	66.1	66.1	84	61.1	0	1	90	0.00	29.925 
03:35	66.1	66.1	66.1	83	60.8	0	1	90	0.00	29.925 
03:40	66.3	66.3	66.3	82	60.6	1	1	90	0.00	29.925 
03:45	66.4	66.4	66.4	81	60.4	0	1	90	0.00	29.910 
03:50	66.6	66.6	66.6	81	60.6	0	0	---	0.00	29.910 
03:55	66.6	66.6	66.6	82	60.9	0	0	---	0.00	29.910 
04:00	66.6	66.6	66.6	82	60.9	0	0	---	0.00	29.916 
04:05	66.6	66.6	66.6	82	60.9	0	1	90	0.00	29.916 
04:10	66.6	66.6	66.6	81	60.6	0	1	90	0.00	29.916 
04:15	66.8	66.8	66.8	81	60.8	0	2	90	0.00	29.892 
04:20	67.3	67.3	67.3	78	60.2	1	4	90	0.00	29.892 
04:25	67.8	67.8	67.8	77	60.3	1	4	112	0.00	29.892 
04:30	68.4	68.4	68.4	75	60.2	2	4	90	0.00	29.879 
04:35	68.8	68.8	68.8	74	60.2	2	4	90	0.00	29.879 
04:40	69.1	69.1	69.1	73	60.1	1	4	90	0.00	29.879 
04:45	69.3	69.3	69.3	73	60.3	1	4	315	0.00	29.904 
04:50	69.4	69.4	69.4	73	60.4	0	2	248	0.00	29.904 
04:55	69.4	69.4	69.4	73	60.4	0	1	248	0.00	29.904 
05:00	69.4	69.4	69.4	73	60.4	0	2	248	0.00	29.917 
05:05	69.4	69.4	69.4	73	60.4	0	1	248	0.00	29.917 
05:10	69.4	69.4	69.4	74	60.7	0	1	248	0.00	29.917 
05:15	69.3	69.3	69.3	74	60.6	1	3	90	0.00	29.890 
05:20	69.3	69.3	69.3	74	60.6	1	2	90	0.00	29.890 
05:25	69.3	69.3	69.3	75	61.0	0	1	90	0.00	29.890 
05:30	69.3	69.3	69.3	75	61.0	0	2	90	0.00	29.907 
05:35	69.3	69.3	69.3	75	61.0	0	2	90	0.00	29.907 
05:40	69.3	69.3	69.3	75	61.0	0	1	90	0.00	29.907 
05:45	69.3	69.3	69.3	76	61.4	0	2	68	0.00	29.919 
05:50	69.1	69.1	69.1	76	61.2	0	2	68	0.00	29.919 
05:55	69.1	69.1	69.1	76	61.2	0	2	68	0.00	29.919 
06:00	69.1	69.1	69.1	76	61.2	0	1	68	0.00	29.911 
06:05	69.1	69.1	69.1	76	61.2	0	1	68	0.00	29.911 
06:10	69.1	69.1	69.1	77	61.6	0	2	68	0.00	29.911 
06:15	68.9	68.9	68.9	77	61.4	0	1	68	0.00	29.908 
06:20	68.9	68.9	68.9	77	61.4	0	2	45	0.00	29.908 
06:25	68.8	68.8	68.8	78	61.7	0	2	0	0.00	29.908 
06:30	68.8	68.8	68.8	78	61.7	0	2	0	0.00	29.895 
06:35	68.6	68.6	68.6	79	61.8	0	2	315	0.00	29.895 
06:40	68.6	68.6	68.6	79	61.8	0	2	315	0.00	29.895 
06:45	68.6	68.6	68.6	80	62.2	0	2	270	0.00	29.891 
06:50	68.6	68.6	68.6	80	62.2	0	2	270	0.00	29.891 
06:55	68.6	68.6	68.6	81	62.5	0	2	270	0.00	29.891 
07:00	68.6	68.6	68.6	81	62.5	1	2	270	0.00	29.886 
07:05	68.6	68.6	68.6	81	62.5	1	4	248	0.00	29.886 
07:10	68.6	68.6	68.6	81	62.5	1	3	248	0.00	29.886 
07:15	68.8	68.8	68.8	82	63.1	0	2	248	0.00	29.894 
07:20	68.8	68.8	68.8	82	63.1	0	1	248	0.00	29.894 
07:25	68.9	68.9	68.9	82	63.2	0	2	248	0.00	29.894 
07:30	69.1	69.1	69.1	82	63.4	0	2	248	0.00	29.896 
07:35	69.3	69.3	69.3	81	63.2	1	4	90	0.00	29.896 
07:40	69.4	69.4	69.4	81	63.3	1	3	90	0.00	29.896 
07:45	69.6	69.6	69.6	81	63.5	1	2	90	0.00	29.907 
07:50	69.8	69.8	69.8	81	63.7	0	2	90	0.00	29.907 
07:55	69.9	69.9	69.9	81	63.8	0	2	90	0.00	29.907 
08:00	70.1	70.1	70.1	81	64.0	1	4	90	0.00	29.920 
08:05	70.3	70.3	70.3	81	64.2	1	4	112	0.00	29.920 
08:10	70.4	70.4	70.4	81	64.3	1	2	112	0.00	29.920 
08:15	70.6	70.6	70.6	81	64.5	1	2	112	0.00	29.923 
08:20	70.8	70.8	70.8	82	65.0	1	2	112	0.00	29.923 
08:25	70.8	70.8	70.8	81	64.7	1	3	112	0.00	29.923 
08:30	70.9	70.9	70.9	81	64.8	1	2	112	0.00	29.919 
08:35	70.9	70.9	70.9	81	64.8	1	3	112	0.00	29.919 
08:40	71.1	71.1	71.1	81	65.0	1	2	112	0.00	29.919 
08:45	71.1	71.1	71.1	81	65.0	1	3	68	0.00	29.922 
08:50	71.3	71.3	71.3	81	65.2	1	3	68	0.00	29.922 
08:55	71.5	71.5	71.5	81	65.4	0	1	68	0.00	29.922 
09:00	71.6	71.6	71.6	81	65.4	1	3	68	0.00	29.930 
09:05	71.8	71.8	71.8	81	65.6	1	3	68	0.00	29.930 
09:10	72.1	72.1	72.1	81	65.9	1	2	68	0.00	29.930 
09:15	72.5	72.5	72.5	81	66.3	1	3	68	0.00	29.941 
09:20	72.7	72.7	72.7	80	66.2	2	4	112	0.00	29.941 
09:25	72.8	72.8	72.8	80	66.3	1	3	90	0.00	29.941 
09:30	73.2	73.2	73.2	80	66.6	1	4	90	0.00	29.940 
09:35	73.5	73.5	73.5	79	66.6	1	4	90	0.00	29.940 
09:40	74.0	74.0	74.0	78	66.7	2	4	112	0.00	29.940 
09:45	74.4	74.4	74.4	78	67.1	1	6	90	0.00	29.939 
09:50	74.4	74.4	74.4	78	67.1	2	4	112	0.00	29.939 
09:55	74.6	74.6	74.6	79	67.6	2	5	112	0.00	29.939 
10:00	75.1	75.1	76.0	78	67.8	1	4	90	0.00	29.937 
10:05	75.4	75.4	76.4	77	67.7	1	3	270	0.00	29.937 
10:10	75.8	75.8	77.0	77	68.1	1	3	22	0.00	29.937 
10:15	76.1	76.1	77.4	77	68.3	1	3	68	0.00	29.943 
10:20	76.3	76.3	77.6	78	68.9	2	4	90	0.00	29.943 
10:25	76.7	76.7	78.2	76	68.5	3	7	112	0.00	29.943 
10:30	76.8	76.8	78.4	77	69.0	2	6	90	0.00	29.938 
10:35	77.2	77.2	79.0	77	69.4	1	4	90	0.00	29.938 
10:40	77.6	77.6	79.6	75	69.0	1	4	90	0.00	29.938 
10:45	77.9	77.9	80.0	75	69.3	1	3	90	0.00	29.932 
10:50	78.1	78.1	80.3	74	69.1	2	4	270	0.00	29.932 
10:55	78.1	78.1	80.3	75	69.5	2	4	248	0.00	29.932 
11:00	78.5	78.5	81.0	75	69.9	2	5	90	0.00	29.925 
11:05	78.5	78.5	80.9	74	69.5	2	5	248	0.00	29.925 
11:10	78.6	78.6	81.1	75	70.0	2	3	270	0.00	29.925 
11:15	78.8	78.8	81.4	74	69.8	1	5	270	0.00	29.931 
11:20	78.5	78.5	80.9	74	69.5	1	3	248	0.00	29.931 
11:25	78.5	78.5	81.0	75	69.9	0	1	248	0.00	29.931 
11:30	78.3	78.3	80.7	76	70.1	0	3	248	0.00	29.930 
11:35	78.3	78.3	80.7	77	70.5	0	2	248	0.00	29.930 
11:40	78.6	78.6	81.2	77	70.8	1	3	0	0.00	29.930 
11:45	78.8	78.8	81.6	77	71.0	2	4	248	0.00	29.931 
11:50	79.4	79.4	82.6	76	71.2	1	4	248	0.00	29.931 
11:55	79.6	79.6	82.8	75	71.0	2	5	90	0.00	29.931 
12:00	79.6	79.6	82.7	74	70.6	2	5	248	0.00	29.930 
12:05	79.4	79.4	82.6	76	71.2	1	4	315	0.00	29.930 
12:10	79.6	79.6	83.0	76	71.3	1	2	270	0.00	29.930 
12:15	79.8	79.8	83.2	75	71.1	2	4	90	0.00	29.928 
12:20	80.1	80.1	83.9	76	71.8	1	4	90	0.00	29.928 
12:25	80.7	80.7	84.7	74	71.6	1	3	112	0.00	29.928 
12:30	81.1	81.1	85.3	73	71.6	2	5	112	0.00	29.923 
12:35	81.6	81.6	86.3	73	72.1	2	6	90	0.00	29.923 
12:40	82.4	82.4	88.2	74	73.3	1	3	22	0.00	29.923 
12:45	82.8	82.8	88.8	73	73.2	1	3	315	0.00	29.917 
12:50	83.4	83.4	89.5	71	73.0	1	3	90	0.00	29.917 
12:55	83.8	83.8	90.4	71	73.4	1	3	270	0.00	29.917 
13:00	84.0	84.0	90.2	69	72.7	2	4	90	0.00	29.911 
13:05	83.6	83.6	89.0	68	71.9	2	5	90	0.00	29.911 
13:10	83.4	83.4	89.2	70	72.6	2	4	90	0.00	29.911 
13:15	83.6	83.6	90.2	72	73.6	2	5	270	0.00	29.904 
13:20	84.1	84.1	90.0	68	72.4	1	3	248	0.00	29.904 
13:25	84.3	84.3	90.1	67	72.1	2	5	248	0.00	29.904 
13:30	84.9	84.9	92.1	69	73.6	1	5	248	0.00	29.909 
13:35	84.9	84.9	90.7	65	71.8	2	4	112	0.00	29.909 
13:40	84.5	84.5	90.5	67	72.3	3	5	90	0.00	29.909 
13:45	84.1	84.1	89.7	67	71.9	2	4	90	0.00	29.900 
13:50	84.0	84.0	89.5	67	71.8	2	5	90	0.00	29.900 
13:55	83.8	83.8	89.4	68	72.1	2	5	90	0.00	29.900 
14:00	83.4	83.4	88.9	69	72.1	2	4	270	0.00	29.903 
14:05	83.6	83.6	89.0	68	71.9	2	5	158	0.00	29.903 
14:10	83.8	83.8	89.4	68	72.1	2	5	68	0.00	29.903 
14:15	83.6	83.6	88.7	67	71.5	3	7	90	0.00	29.901 
14:20	83.8	83.8	89.7	69	72.5	1	5	68	0.00	29.901 
14:25	83.8	83.8	89.4	68	72.1	2	7	248	0.00	29.901 
14:30	84.0	84.0	90.2	69	72.7	2	6	112	0.00	29.898 
14:35	84.3	84.3	89.8	66	71.7	2	5	90	0.00	29.898 
14:40	84.5	84.5	90.9	68	72.7	3	6	90	0.00	29.898 
14:45	84.9	84.9	91.4	67	72.7	2	5	270	0.00	29.902 
14:50	85.3	85.3	91.5	65	72.2	2	6	248	0.00	29.902 
14:55	85.7	85.7	93.1	67	73.4	2	4	248	0.00	29.902 
15:00	85.7	85.7	91.6	63	71.6	2	7	90	0.00	29.900 
15:05	85.3	85.3	91.5	65	72.2	2	5	90	0.00	29.900 
15:10	84.7	84.7	91.3	68	72.9	3	9	112	0.00	29.900 
15:15	84.9	84.9	91.0	66	72.2	2	8	338	0.00	29.894 
15:20	85.7	85.7	92.7	66	73.0	2	9	90	0.00	29.894 
15:25	86.5	86.5	94.1	65	73.3	2	5	292	0.00	29.894 
15:30	86.7	86.7	93.7	63	72.6	3	8	90	0.00	29.884 
15:35	87.0	87.0	93.5	61	71.9	2	6	270	0.00	29.884 
15:40	87.4	87.4	94.3	61	72.3	4	9	270	0.00	29.884 
15:45	87.4	87.4	94.8	62	72.7	2	7	112	0.00	29.878 
15:50	87.2	87.2	93.9	61	72.1	3	8	292	0.00	29.878 
15:55	87.0	87.0	93.9	62	72.4	3	6	270	0.00	29.878 
16:00	87.2	87.2	94.3	62	72.6	2	8	270	0.00	29.880 
16:05	87.4	87.4	94.8	62	72.7	2	6	90	0.00	29.880 
16:10	87.2	87.2	94.3	62	72.6	2	4	270	0.00	29.880 
16:15	87.2	87.2	93.5	60	71.6	3	10	270	0.00	29.873 
16:20	87.8	87.8	95.2	61	72.6	3	9	248	0.00	29.873 
16:25	87.6	87.6	95.2	62	72.9	4	11	270	0.00	29.873 
16:30	87.6	87.6	95.2	62	72.9	3	8	248	0.00	29.860 
16:35	87.8	87.8	95.2	61	72.6	3	9	248	0.00	29.860 
16:40	87.8	87.8	95.2	61	72.6	4	11	248	0.00	29.860 
16:45	88.4	88.4	95.5	59	72.2	2	5	270	0.00	29.868 
16:50	88.8	88.8	95.9	58	72.1	4	10	248	0.00	29.868 
16:55	88.2	88.2	94.7	58	71.5	4	7	270	0.00	29.868 
17:00	88.4	88.4	95.5	59	72.2	4	9	248	0.00	29.861 
17:05	88.8	88.8	95.9	58	72.1	3	7	270	0.00	29.861 
17:10	89.3	89.3	96.5	57	72.0	4	7	270	0.00	29.861 
17:15	88.8	88.8	95.4	57	71.6	3	9	270	0.00	29.847 
17:20	88.4	88.4	95.5	59	72.2	3	11	270	0.00	29.847 
17:25	88.2	88.2	95.6	60	72.5	4	10	248	0.00	29.847 
17:30	88.0	88.0	94.3	58	71.3	5	12	270	0.00	29.826 
17:35	88.4	88.4	95.1	58	71.7	4	11	270	0.00	29.826 
17:40	88.6	88.6	94.6	56	70.9	6	15	270	0.00	29.826 
17:45	88.8	88.8	95.0	56	71.0	6	12	270	0.00	29.814 
17:50	88.8	88.8	94.5	55	70.5	6	12	270	0.00	29.814 
17:55	88.8	88.8	94.5	55	70.5	4	11	270	0.00	29.814 
18:00	89.0	89.0	94.5	54	70.2	5	11	248	0.00	29.828 
18:05	88.4	88.4	93.3	54	69.6	6	17	270	0.00	29.828 
18:10	87.6	87.6	91.8	54	68.9	6	15	270	0.00	29.828 
18:15	87.2	87.2	91.5	55	69.0	4	10	270	0.00	29.832 
18:20	87.0	87.0	91.5	56	69.4	4	14	270	0.00	29.832 
18:25	86.7	86.7	91.3	57	69.6	4	10	270	0.00	29.832 
18:30	85.9	85.9	89.2	55	67.8	5	12	248	0.00	29.823 
18:35	85.5	85.5	87.7	52	65.8	6	13	248	0.00	29.823 
18:40	84.9	84.9	86.8	52	65.3	5	15	248	0.00	29.823 
18:45	84.1	84.1	86.2	54	65.6	5	10	270	0.00	29.824 
18:50	83.6	83.6	85.5	54	65.2	5	11	270	0.00	29.824 
18:55	82.8	82.8	84.4	54	64.4	6	15	270	0.00	29.824 
19:00	81.8	81.8	83.3	55	64.0	5	12	270	0.00	29.826 
19:05	81.4	81.4	82.8	55	63.7	2	6	270	0.00	29.826 
19:10	81.4	81.4	82.8	55	63.7	2	5	270	0.00	29.826 
19:15	81.2	81.2	82.7	56	64.0	2	6	270	0.00	29.827 
19:20	81.2	81.2	82.9	57	64.5	2	6	248	0.00	29.827 
19:25	81.2	81.2	82.9	57	64.5	2	7	248	0.00	29.827 
19:30	81.4	81.4	83.3	58	65.2	2	7	270	0.00	29.839 
19:35	81.8	81.8	84.0	59	66.0	2	5	270	0.00	29.839 
19:40	82.0	82.0	84.2	59	66.2	2	5	248	0.00	29.839 
19:45	82.2	82.2	84.7	60	66.9	2	4	248	0.00	29.826 
19:50	82.4	82.4	85.2	61	67.6	2	10	248	0.00	29.826 
19:55	83.0	83.0	86.1	61	68.1	2	5	248	0.00	29.826 
20:00	83.4	83.4	87.0	62	69.0	2	5	270	0.00	29.840 
20:05	83.6	83.6	87.4	62	69.2	2	5	270	0.00	29.840 
20:10	83.8	83.8	88.0	63	69.8	2	5	248	0.00	29.840 
20:15	83.8	83.8	88.3	64	70.3	3	6	270	0.00	29.835 
20:20	84.0	84.0	88.6	64	70.5	2	5	248	0.00	29.835 
20:25	84.0	84.0	88.6	64	70.5	2	7	248	0.00	29.835 
20:30	83.8	83.8	88.6	65	70.7	2	6	248	0.00	29.836 
20:35	83.8	83.8	88.6	65	70.7	3	7	270	0.00	29.836 
20:40	83.8	83.8	88.6	65	70.7	2	6	270	0.00	29.836 
20:45	84.0	84.0	88.9	65	70.9	2	6	248	0.00	29.837 
20:50	83.8	83.8	88.6	65	70.7	2	5	248	0.00	29.837 
20:55	83.8	83.8	88.6	65	70.7	2	4	248	0.00	29.837 
21:00	84.0	84.0	88.9	65	70.9	3	6	248	0.00	29.833 
21:05	84.0	84.0	88.9	65	70.9	3	7	248	0.00	29.833 
21:10	84.0	84.0	88.9	65	70.9	3	10	270	0.00	29.833 
21:15	83.8	83.8	88.6	65	70.7	3	7	270	0.00	29.834 
21:20	83.8	83.8	88.6	65	70.7	2	5	270	0.00	29.834 
21:25	84.0	84.0	88.6	64	70.5	3	6	270	0.00	29.834 
21:30	83.8	83.8	88.8	66	71.2	3	5	248	0.00	29.853 
21:35	79.2	79.2	81.5	67	67.3	4	10	292	0.02	29.853 
21:40	76.0	76.0	77.4	75	67.5	1	4	0	0.02	29.853 
21:45	74.2	74.2	74.2	80	67.6	1	3	45	0.00	29.857 
21:50	73.0	73.0	73.0	83	67.5	1	3	45	0.01	29.857 
21:55	72.5	72.5	72.5	85	67.7	0	1	45	0.00	29.857 
22:00	72.0	72.0	72.0	86	67.6	0	1	45	0.00	29.843 
22:05	71.6	71.6	71.6	88	67.8	0	1	45	0.00	29.843 
22:10	71.5	71.5	71.5	89	68.1	0	0	---	0.00	29.843 
22:15	71.3	71.3	71.3	90	68.2	0	0	---	0.00	29.858 
22:20	71.3	71.3	71.3	91	68.5	0	0	---	0.00	29.858 
22:25	71.3	71.3	71.3	91	68.5	0	1	45	0.00	29.858 
22:30	71.3	71.3	71.3	91	68.5	0	0	---	0.00	29.848 
22:35	71.3	71.3	71.3	91	68.5	0	0	---	0.00	29.848 
22:40	71.1	71.1	71.1	92	68.7	0	1	45	0.00	29.848 
22:45	70.9	70.9	70.9	92	68.5	0	1	45	0.00	29.862 
22:50	70.8	70.8	70.8	91	68.0	0	0	---	0.00	29.862 
22:55	70.6	70.6	70.6	91	67.8	0	0	---	0.00	29.862 
23:00	70.6	70.6	70.6	92	68.2	0	0	---	0.00	29.864 
23:05	70.6	70.6	70.6	92	68.2	0	0	---	0.00	29.864 
23:10	70.3	70.3	70.3	92	67.9	0	0	---	0.00	29.864 
23:15	70.1	70.1	70.1	92	67.7	0	0	---	0.00	29.868 
23:20	70.1	70.1	70.1	92	67.7	0	0	---	0.00	29.868 
23:25	69.9	69.9	69.9	92	67.5	0	0	---	0.00	29.868 
23:30	69.9	69.9	69.9	92	67.5	0	0	---	0.00	29.873 
23:35	69.9	69.9	69.9	92	67.5	0	0	---	0.00	29.873 
23:40	69.9	69.9	69.9	93	67.8	0	0	---	0.00	29.873 
23:45	69.9	69.9	69.9	93	67.8	0	0	---	0.00	29.873 
23:50	69.9	69.9	69.9	93	67.8	0	0	---	0.00	29.873 
23:55	69.9	69.9	69.9	93	67.8	0	0	---	0.00	29.873 

CoCoRaHS
IN-AL-39
A2 Web Hosting
Creative Commons License
GoDaddy
Look for:

loaded 2017-10-18 21:59:57 • last modified 2010-11-18 10:43:29
Privacy PolicyDisclaimer
• wx.awcolley.com is powered by PmWiki v.2002016 •
• all content (unless otherwise noted) © 2017 A W Colley